Weather at Cufar Airport

Public forecast

Using degrees Celsius for public forecast. Weather courtesy of forecast.io.

Closest aviation weather report (METAR) to Cufar Airport

Closest report is Osvaldo Vieira International Airport, 45.9 nm (84.9 km) NW. Retrieved 2020/10/30 07:00 UTC (51 minutes ago):

GGOV 300700Z VRB01KT 0150 R21/0300 R03/0300 FG FEW004 24/24 Q1010 BECMG 6000 NSW

Closest aviation forecast (TAF) to Cufar Airport

Forecast is more than 6 hours old.

Closest forecast is Osvaldo Vieira International Airport, 45.9 nm (84.9 km) NW. Retrieved 2020-10-30 00:51 UTC (7 hours ago):

TAF GGOV 292300Z 3000/3024 26004KT 8000 PROB30 TEMPO 3005/3008 0800 FG